sensor_id;sensor_type;location;lat;lon;timestamp;P1;durP1;ratioP1;P2;durP2;ratioP2
65982;SDS011;52740;40.620;-8.640;2022-07-29T00:00:25;5.85;;;2.53;;
65982;SDS011;52740;40.620;-8.640;2022-07-29T00:02:26;2.85;;;1.30;;
65982;SDS011;52740;40.620;-8.640;2022-07-29T00:04:28;4.30;;;1.70;;
65982;SDS011;52740;40.620;-8.640;2022-07-29T00:06:29;3.15;;;1.38;;
65982;SDS011;52740;40.620;-8.640;2022-07-29T00:08:29;2.92;;;1.33;;
65982;SDS011;52740;40.620;-8.640;2022-07-29T00:10:30;6.35;;;1.25;;
65982;SDS011;52740;40.620;-8.640;2022-07-29T00:12:31;5.40;;;1.73;;
65982;SDS011;52740;40.620;-8.640;2022-07-29T00:14:32;6.40;;;2.30;;
65982;SDS011;52740;40.620;-8.640;2022-07-29T00:16:33;3.00;;;1.50;;
65982;SDS011;52740;40.620;-8.640;2022-07-29T00:18:34;3.10;;;1.00;;
65982;SDS011;52740;40.620;-8.640;2022-07-29T00:20:35;6.05;;;1.38;;
65982;SDS011;52740;40.620;-8.640;2022-07-29T00:22:37;5.80;;;1.35;;
65982;SDS011;52740;40.620;-8.640;2022-07-29T00:24:38;1.45;;;1.08;;
65982;SDS011;52740;40.620;-8.640;2022-07-29T00:26:39;2.00;;;1.13;;
65982;SDS011;52740;40.620;-8.640;2022-07-29T00:28:40;3.20;;;1.27;;
65982;SDS011;52740;40.620;-8.640;2022-07-29T00:30:41;4.78;;;2.05;;
65982;SDS011;52740;40.620;-8.640;2022-07-29T00:32:43;2.88;;;1.58;;
65982;SDS011;52740;40.620;-8.640;2022-07-29T00:34:43;8.82;;;1.45;;
65982;SDS011;52740;40.620;-8.640;2022-07-29T00:37:03;3.55;;;1.35;;
65982;SDS011;52740;40.620;-8.640;2022-07-29T00:39:03;8.98;;;1.30;;
65982;SDS011;52740;40.620;-8.640;2022-07-29T00:41:04;7.10;;;1.73;;
65982;SDS011;52740;40.620;-8.640;2022-07-29T00:43:05;7.57;;;1.60;;
65982;SDS011;52740;40.620;-8.640;2022-07-29T00:45:06;6.13;;;1.95;;
65982;SDS011;52740;40.620;-8.640;2022-07-29T00:47:07;8.50;;;1.60;;
65982;SDS011;52740;40.620;-8.640;2022-07-29T00:49:09;6.45;;;1.65;;
65982;SDS011;52740;40.620;-8.640;2022-07-29T00:51:10;5.07;;;1.20;;
65982;SDS011;52740;40.620;-8.640;2022-07-29T00:53:11;6.72;;;1.83;;
65982;SDS011;52740;40.620;-8.640;2022-07-29T00:55:13;3.05;;;1.20;;
65982;SDS011;52740;40.620;-8.640;2022-07-29T00:57:16;3.10;;;1.37;;
65982;SDS011;52740;40.620;-8.640;2022-07-29T00:59:16;3.28;;;1.40;;
65982;SDS011;52740;40.620;-8.640;2022-07-29T01:01:17;2.80;;;1.30;;
65982;SDS011;52740;40.620;-8.640;2022-07-29T01:03:18;8.60;;;1.92;;
65982;SDS011;52740;40.620;-8.640;2022-07-29T01:05:20;9.82;;;2.30;;
65982;SDS011;52740;40.620;-8.640;2022-07-29T01:07:24;4.10;;;1.60;;
65982;SDS011;52740;40.620;-8.640;2022-07-29T01:09:26;4.78;;;1.48;;
65982;SDS011;52740;40.620;-8.640;2022-07-29T01:11:28;3.53;;;1.40;;
65982;SDS011;52740;40.620;-8.640;2022-07-29T01:13:30;1.83;;;1.20;;
65982;SDS011;52740;40.620;-8.640;2022-07-29T01:15:34;7.00;;;1.88;;
65982;SDS011;52740;40.620;-8.640;2022-07-29T01:18:07;4.32;;;1.45;;
65982;SDS011;52740;40.620;-8.640;2022-07-29T01:20:20;7.78;;;1.50;;
65982;SDS011;52740;40.620;-8.640;2022-07-29T01:24:41;7.05;;;2.00;;
65982;SDS011;52740;40.620;-8.640;2022-07-29T01:26:57;4.78;;;1.80;;
65982;SDS011;52740;40.620;-8.640;2022-07-29T01:31:16;9.38;;;1.45;;
65982;SDS011;52740;40.620;-8.640;2022-07-29T01:33:20;5.88;;;1.83;;
65982;SDS011;52740;40.620;-8.640;2022-07-29T01:35:43;2.50;;;1.58;;
65982;SDS011;52740;40.620;-8.640;2022-07-29T01:37:48;7.43;;;1.83;;
65982;SDS011;52740;40.620;-8.640;2022-07-29T01:40:01;5.28;;;1.48;;
65982;SDS011;52740;40.620;-8.640;2022-07-29T01:44:37;6.68;;;1.58;;
65982;SDS011;52740;40.620;-8.640;2022-07-29T01:46:50;3.67;;;1.38;;
65982;SDS011;52740;40.620;-8.640;2022-07-29T01:49:00;3.13;;;1.65;;
65982;SDS011;52740;40.620;-8.640;2022-07-29T01:53:34;4.85;;;1.20;;
65982;SDS011;52740;40.620;-8.640;2022-07-29T01:55:40;4.72;;;1.38;;
65982;SDS011;52740;40.620;-8.640;2022-07-29T01:57:45;12.18;;;1.85;;
65982;SDS011;52740;40.620;-8.640;2022-07-29T01:59:48;9.93;;;1.42;;
65982;SDS011;52740;40.620;-8.640;2022-07-29T02:01:52;7.30;;;1.85;;
65982;SDS011;52740;40.620;-8.640;2022-07-29T02:03:54;8.18;;;1.40;;
65982;SDS011;52740;40.620;-8.640;2022-07-29T02:05:56;4.03;;;2.00;;
65982;SDS011;52740;40.620;-8.640;2022-07-29T02:08:00;3.38;;;1.33;;
65982;SDS011;52740;40.620;-8.640;2022-07-29T02:10:02;6.32;;;1.85;;
65982;SDS011;52740;40.620;-8.640;2022-07-29T02:12:05;3.63;;;1.48;;
65982;SDS011;52740;40.620;-8.640;2022-07-29T02:14:07;5.45;;;2.22;;
65982;SDS011;52740;40.620;-8.640;2022-07-29T02:16:11;6.80;;;1.83;;
65982;SDS011;52740;40.620;-8.640;2022-07-29T02:18:16;9.13;;;2.42;;
65982;SDS011;52740;40.620;-8.640;2022-07-29T02:20:18;7.95;;;1.70;;
65982;SDS011;52740;40.620;-8.640;2022-07-29T02:22:19;6.75;;;1.80;;
65982;SDS011;52740;40.620;-8.640;2022-07-29T02:24:23;3.25;;;1.73;;
65982;SDS011;52740;40.620;-8.640;2022-07-29T02:26:25;9.98;;;2.95;;
65982;SDS011;52740;40.620;-8.640;2022-07-29T02:28:27;7.90;;;2.60;;
65982;SDS011;52740;40.620;-8.640;2022-07-29T02:30:29;4.20;;;2.47;;
65982;SDS011;52740;40.620;-8.640;2022-07-29T02:32:32;4.70;;;1.80;;
65982;SDS011;52740;40.620;-8.640;2022-07-29T02:34:37;11.35;;;2.30;;
65982;SDS011;52740;40.620;-8.640;2022-07-29T02:36:40;2.45;;;1.38;;
65982;SDS011;52740;40.620;-8.640;2022-07-29T02:38:43;7.88;;;2.40;;
65982;SDS011;52740;40.620;-8.640;2022-07-29T02:40:51;3.35;;;2.20;;
65982;SDS011;52740;40.620;-8.640;2022-07-29T02:42:53;4.55;;;1.90;;
65982;SDS011;52740;40.620;-8.640;2022-07-29T02:44:55;8.73;;;3.03;;
65982;SDS011;52740;40.620;-8.640;2022-07-29T02:47:02;10.55;;;2.42;;
65982;SDS011;52740;40.620;-8.640;2022-07-29T02:51:40;6.87;;;2.20;;
65982;SDS011;52740;40.620;-8.640;2022-07-29T02:53:43;4.60;;;2.25;;
65982;SDS011;52740;40.620;-8.640;2022-07-29T02:55:51;4.53;;;2.33;;
65982;SDS011;52740;40.620;-8.640;2022-07-29T02:58:02;6.03;;;2.28;;
65982;SDS011;52740;40.620;-8.640;2022-07-29T03:00:08;6.93;;;2.92;;
65982;SDS011;52740;40.620;-8.640;2022-07-29T03:02:13;9.50;;;2.38;;
65982;SDS011;52740;40.620;-8.640;2022-07-29T03:04:16;6.20;;;2.53;;
65982;SDS011;52740;40.620;-8.640;2022-07-29T03:06:19;9.48;;;3.65;;
65982;SDS011;52740;40.620;-8.640;2022-07-29T03:08:22;11.57;;;2.72;;
65982;SDS011;52740;40.620;-8.640;2022-07-29T03:10:27;5.57;;;2.22;;
65982;SDS011;52740;40.620;-8.640;2022-07-29T03:12:28;5.93;;;2.38;;
65982;SDS011;52740;40.620;-8.640;2022-07-29T03:14:30;11.45;;;2.80;;
65982;SDS011;52740;40.620;-8.640;2022-07-29T03:16:32;8.80;;;2.72;;
65982;SDS011;52740;40.620;-8.640;2022-07-29T03:18:36;3.88;;;2.47;;
65982;SDS011;52740;40.620;-8.640;2022-07-29T03:20:38;4.05;;;2.40;;
65982;SDS011;52740;40.620;-8.640;2022-07-29T03:22:40;5.10;;;2.33;;
65982;SDS011;52740;40.620;-8.640;2022-07-29T03:24:43;7.57;;;2.47;;
65982;SDS011;52740;40.620;-8.640;2022-07-29T03:26:44;4.10;;;2.35;;
65982;SDS011;52740;40.620;-8.640;2022-07-29T03:28:45;7.75;;;1.98;;
65982;SDS011;52740;40.620;-8.640;2022-07-29T03:30:48;10.05;;;3.22;;
65982;SDS011;52740;40.620;-8.640;2022-07-29T03:32:50;14.02;;;2.90;;
65982;SDS011;52740;40.620;-8.640;2022-07-29T03:34:51;9.25;;;3.78;;
65982;SDS011;52740;40.620;-8.640;2022-07-29T03:36:52;6.05;;;2.95;;
65982;SDS011;52740;40.620;-8.640;2022-07-29T03:38:53;5.82;;;2.75;;
65982;SDS011;52740;40.620;-8.640;2022-07-29T03:40:56;10.80;;;3.65;;
65982;SDS011;52740;40.620;-8.640;2022-07-29T03:43:02;16.17;;;3.70;;
65982;SDS011;52740;40.620;-8.640;2022-07-29T03:45:05;6.93;;;2.83;;
65982;SDS011;52740;40.620;-8.640;2022-07-29T03:49:09;5.88;;;3.47;;
65982;SDS011;52740;40.620;-8.640;2022-07-29T03:51:12;16.48;;;4.90;;
65982;SDS011;52740;40.620;-8.640;2022-07-29T03:53:13;14.57;;;4.70;;
65982;SDS011;52740;40.620;-8.640;2022-07-29T03:55:15;14.13;;;5.05;;
65982;SDS011;52740;40.620;-8.640;2022-07-29T03:57:16;17.02;;;6.28;;
65982;SDS011;52740;40.620;-8.640;2022-07-29T04:01:22;26.65;;;6.72;;
65982;SDS011;52740;40.620;-8.640;2022-07-29T04:03:25;19.80;;;5.60;;
65982;SDS011;52740;40.620;-8.640;2022-07-29T04:05:26;15.50;;;6.10;;
65982;SDS011;52740;40.620;-8.640;2022-07-29T04:07:27;19.02;;;6.38;;
65982;SDS011;52740;40.620;-8.640;2022-07-29T04:09:27;17.83;;;7.70;;
65982;SDS011;52740;40.620;-8.640;2022-07-29T04:11:28;17.15;;;7.70;;
65982;SDS011;52740;40.620;-8.640;2022-07-29T04:13:30;24.38;;;8.48;;
65982;SDS011;52740;40.620;-8.640;2022-07-29T04:15:31;19.15;;;8.52;;
65982;SDS011;52740;40.620;-8.640;2022-07-29T04:17:32;21.92;;;9.73;;
65982;SDS011;52740;40.620;-8.640;2022-07-29T04:19:33;26.25;;;10.88;;
65982;SDS011;52740;40.620;-8.640;2022-07-29T04:21:39;25.80;;;9.70;;
65982;SDS011;52740;40.620;-8.640;2022-07-29T04:23:41;31.83;;;11.15;;
65982;SDS011;52740;40.620;-8.640;2022-07-29T04:25:45;32.83;;;10.47;;
65982;SDS011;52740;40.620;-8.640;2022-07-29T04:27:46;38.20;;;11.50;;
65982;SDS011;52740;40.620;-8.640;2022-07-29T04:30:01;33.00;;;11.18;;
65982;SDS011;52740;40.620;-8.640;2022-07-29T04:32:03;47.45;;;12.80;;
65982;SDS011;52740;40.620;-8.640;2022-07-29T04:34:03;38.60;;;11.02;;
65982;SDS011;52740;40.620;-8.640;2022-07-29T04:36:04;50.67;;;13.10;;
65982;SDS011;52740;40.620;-8.640;2022-07-29T04:38:05;42.97;;;13.65;;
65982;SDS011;52740;40.620;-8.640;2022-07-29T04:40:07;43.80;;;12.90;;
65982;SDS011;52740;40.620;-8.640;2022-07-29T04:42:08;37.97;;;11.68;;
65982;SDS011;52740;40.620;-8.640;2022-07-29T04:44:08;50.50;;;12.23;;
65982;SDS011;52740;40.620;-8.640;2022-07-29T04:46:09;46.17;;;13.18;;
65982;SDS011;52740;40.620;-8.640;2022-07-29T04:48:10;54.00;;;14.10;;
65982;SDS011;52740;40.620;-8.640;2022-07-29T04:50:11;46.67;;;13.70;;
65982;SDS011;52740;40.620;-8.640;2022-07-29T04:52:12;51.85;;;14.18;;
65982;SDS011;52740;40.620;-8.640;2022-07-29T04:54:15;58.13;;;15.50;;
65982;SDS011;52740;40.620;-8.640;2022-07-29T04:56:16;52.00;;;14.35;;
65982;SDS011;52740;40.620;-8.640;2022-07-29T04:58:16;51.97;;;15.00;;
65982;SDS011;52740;40.620;-8.640;2022-07-29T05:00:17;50.80;;;14.68;;
65982;SDS011;52740;40.620;-8.640;2022-07-29T05:02:18;44.13;;;13.88;;
65982;SDS011;52740;40.620;-8.640;2022-07-29T05:04:19;47.80;;;14.85;;
65982;SDS011;52740;40.620;-8.640;2022-07-29T05:06:19;43.65;;;13.13;;
65982;SDS011;52740;40.620;-8.640;2022-07-29T05:08:20;49.88;;;12.00;;
65982;SDS011;52740;40.620;-8.640;2022-07-29T05:10:21;43.30;;;13.90;;
65982;SDS011;52740;40.620;-8.640;2022-07-29T05:12:23;52.38;;;14.80;;
65982;SDS011;52740;40.620;-8.640;2022-07-29T05:14:24;53.97;;;13.27;;
65982;SDS011;52740;40.620;-8.640;2022-07-29T05:16:25;47.33;;;13.27;;
65982;SDS011;52740;40.620;-8.640;2022-07-29T05:18:26;48.20;;;15.00;;
65982;SDS011;52740;40.620;-8.640;2022-07-29T05:20:27;41.22;;;15.32;;
65982;SDS011;52740;40.620;-8.640;2022-07-29T05:22:29;56.15;;;15.05;;
65982;SDS011;52740;40.620;-8.640;2022-07-29T05:24:30;55.85;;;14.30;;
65982;SDS011;52740;40.620;-8.640;2022-07-29T05:26:30;57.78;;;13.80;;
65982;SDS011;52740;40.620;-8.640;2022-07-29T05:28:34;45.67;;;13.60;;
65982;SDS011;52740;40.620;-8.640;2022-07-29T05:30:35;40.67;;;13.10;;
65982;SDS011;52740;40.620;-8.640;2022-07-29T05:32:36;41.92;;;12.45;;
65982;SDS011;52740;40.620;-8.640;2022-07-29T05:34:37;49.08;;;14.45;;
65982;SDS011;52740;40.620;-8.640;2022-07-29T05:36:38;51.80;;;16.08;;
65982;SDS011;52740;40.620;-8.640;2022-07-29T05:38:38;42.50;;;14.55;;
65982;SDS011;52740;40.620;-8.640;2022-07-29T05:40:39;50.53;;;13.68;;
65982;SDS011;52740;40.620;-8.640;2022-07-29T05:42:40;42.42;;;14.27;;
65982;SDS011;52740;40.620;-8.640;2022-07-29T05:44:41;44.90;;;13.55;;
65982;SDS011;52740;40.620;-8.640;2022-07-29T05:46:41;50.38;;;14.20;;
65982;SDS011;52740;40.620;-8.640;2022-07-29T05:48:42;37.45;;;12.55;;
65982;SDS011;52740;40.620;-8.640;2022-07-29T05:50:43;45.40;;;14.73;;
65982;SDS011;52740;40.620;-8.640;2022-07-29T05:52:48;36.58;;;12.68;;
65982;SDS011;52740;40.620;-8.640;2022-07-29T05:54:49;40.78;;;15.32;;
65982;SDS011;52740;40.620;-8.640;2022-07-29T05:56:50;39.67;;;14.43;;
65982;SDS011;52740;40.620;-8.640;2022-07-29T05:58:51;40.15;;;13.25;;
65982;SDS011;52740;40.620;-8.640;2022-07-29T06:00:52;38.53;;;15.23;;
65982;SDS011;52740;40.620;-8.640;2022-07-29T06:02:53;40.25;;;14.93;;
65982;SDS011;52740;40.620;-8.640;2022-07-29T06:04:54;37.50;;;13.35;;
65982;SDS011;52740;40.620;-8.640;2022-07-29T06:06:54;35.60;;;13.13;;
65982;SDS011;52740;40.620;-8.640;2022-07-29T06:08:55;34.95;;;13.02;;
65982;SDS011;52740;40.620;-8.640;2022-07-29T06:10:56;39.05;;;14.60;;
65982;SDS011;52740;40.620;-8.640;2022-07-29T06:12:57;37.45;;;14.07;;
65982;SDS011;52740;40.620;-8.640;2022-07-29T06:14:58;36.95;;;14.88;;
65982;SDS011;52740;40.620;-8.640;2022-07-29T06:16:58;37.78;;;14.57;;
65982;SDS011;52740;40.620;-8.640;2022-07-29T06:18:59;39.67;;;14.15;;
65982;SDS011;52740;40.620;-8.640;2022-07-29T06:21:00;45.42;;;15.32;;
65982;SDS011;52740;40.620;-8.640;2022-07-29T06:23:03;36.92;;;14.68;;
65982;SDS011;52740;40.620;-8.640;2022-07-29T06:25:04;33.63;;;13.85;;
65982;SDS011;52740;40.620;-8.640;2022-07-29T06:27:06;34.45;;;14.50;;
65982;SDS011;52740;40.620;-8.640;2022-07-29T06:29:07;38.38;;;14.68;;
65982;SDS011;52740;40.620;-8.640;2022-07-29T06:31:08;35.20;;;15.18;;
65982;SDS011;52740;40.620;-8.640;2022-07-29T06:33:09;32.35;;;14.00;;
65982;SDS011;52740;40.620;-8.640;2022-07-29T06:35:16;30.02;;;14.98;;
65982;SDS011;52740;40.620;-8.640;2022-07-29T06:37:17;28.13;;;13.48;;
65982;SDS011;52740;40.620;-8.640;2022-07-29T06:39:18;36.35;;;13.48;;
65982;SDS011;52740;40.620;-8.640;2022-07-29T06:41:19;36.72;;;12.95;;
65982;SDS011;52740;40.620;-8.640;2022-07-29T06:43:20;32.60;;;14.68;;
65982;SDS011;52740;40.620;-8.640;2022-07-29T06:45:21;35.95;;;15.15;;
65982;SDS011;52740;40.620;-8.640;2022-07-29T06:47:21;28.63;;;14.07;;
65982;SDS011;52740;40.620;-8.640;2022-07-29T06:49:22;32.63;;;13.40;;
65982;SDS011;52740;40.620;-8.640;2022-07-29T06:51:24;36.22;;;14.13;;
65982;SDS011;52740;40.620;-8.640;2022-07-29T06:53:25;41.75;;;15.05;;
65982;SDS011;52740;40.620;-8.640;2022-07-29T06:55:27;32.22;;;13.10;;
65982;SDS011;52740;40.620;-8.640;2022-07-29T06:57:28;31.42;;;13.73;;
65982;SDS011;52740;40.620;-8.640;2022-07-29T06:59:29;25.55;;;12.30;;
65982;SDS011;52740;40.620;-8.640;2022-07-29T07:01:29;32.08;;;12.68;;
65982;SDS011;52740;40.620;-8.640;2022-07-29T07:03:30;26.85;;;12.65;;
65982;SDS011;52740;40.620;-8.640;2022-07-29T07:05:33;32.47;;;13.85;;
65982;SDS011;52740;40.620;-8.640;2022-07-29T07:07:38;32.33;;;14.00;;
65982;SDS011;52740;40.620;-8.640;2022-07-29T07:10:04;26.58;;;12.90;;
65982;SDS011;52740;40.620;-8.640;2022-07-29T07:12:05;35.20;;;13.05;;
65982;SDS011;52740;40.620;-8.640;2022-07-29T07:14:06;25.95;;;12.52;;
65982;SDS011;52740;40.620;-8.640;2022-07-29T07:16:07;28.00;;;12.30;;
65982;SDS011;52740;40.620;-8.640;2022-07-29T07:18:13;35.58;;;12.95;;
65982;SDS011;52740;40.620;-8.640;2022-07-29T07:20:14;24.88;;;11.23;;
65982;SDS011;52740;40.620;-8.640;2022-07-29T07:22:26;28.50;;;12.02;;
65982;SDS011;52740;40.620;-8.640;2022-07-29T07:24:56;27.33;;;12.77;;
65982;SDS011;52740;40.620;-8.640;2022-07-29T07:26:58;22.83;;;12.35;;
65982;SDS011;52740;40.620;-8.640;2022-07-29T07:28:59;27.38;;;11.38;;
65982;SDS011;52740;40.620;-8.640;2022-07-29T07:31:00;26.25;;;11.55;;
65982;SDS011;52740;40.620;-8.640;2022-07-29T07:33:01;25.67;;;10.80;;
65982;SDS011;52740;40.620;-8.640;2022-07-29T07:35:03;20.77;;;10.60;;
65982;SDS011;52740;40.620;-8.640;2022-07-29T07:37:05;25.70;;;10.77;;
65982;SDS011;52740;40.620;-8.640;2022-07-29T07:39:06;24.77;;;10.15;;
65982;SDS011;52740;40.620;-8.640;2022-07-29T07:41:07;22.58;;;9.88;;
65982;SDS011;52740;40.620;-8.640;2022-07-29T07:43:08;23.20;;;10.32;;
65982;SDS011;52740;40.620;-8.640;2022-07-29T07:45:09;17.27;;;9.85;;
65982;SDS011;52740;40.620;-8.640;2022-07-29T07:47:10;24.67;;;10.15;;
65982;SDS011;52740;40.620;-8.640;2022-07-29T07:49:15;18.88;;;9.50;;
65982;SDS011;52740;40.620;-8.640;2022-07-29T07:51:16;18.30;;;10.15;;
65982;SDS011;52740;40.620;-8.640;2022-07-29T07:53:17;23.48;;;10.38;;
65982;SDS011;52740;40.620;-8.640;2022-07-29T07:55:18;20.77;;;10.80;;
65982;SDS011;52740;40.620;-8.640;2022-07-29T07:57:19;18.38;;;9.50;;
65982;SDS011;52740;40.620;-8.640;2022-07-29T07:59:20;17.33;;;9.27;;
65982;SDS011;52740;40.620;-8.640;2022-07-29T08:01:21;17.40;;;8.65;;
65982;SDS011;52740;40.620;-8.640;2022-07-29T08:03:23;16.52;;;9.38;;
65982;SDS011;52740;40.620;-8.640;2022-07-29T08:05:23;16.80;;;8.98;;
65982;SDS011;52740;40.620;-8.640;2022-07-29T08:07:24;18.50;;;8.90;;
65982;SDS011;52740;40.620;-8.640;2022-07-29T08:09:26;14.90;;;8.05;;
65982;SDS011;52740;40.620;-8.640;2022-07-29T08:11:27;17.90;;;8.55;;
65982;SDS011;52740;40.620;-8.640;2022-07-29T08:13:28;14.60;;;7.72;;
65982;SDS011;52740;40.620;-8.640;2022-07-29T08:15:30;16.35;;;7.97;;
65982;SDS011;52740;40.620;-8.640;2022-07-29T08:17:31;13.68;;;8.02;;
65982;SDS011;52740;40.620;-8.640;2022-07-29T08:19:34;12.50;;;8.55;;
65982;SDS011;52740;40.620;-8.640;2022-07-29T08:21:37;14.63;;;7.43;;
65982;SDS011;52740;40.620;-8.640;2022-07-29T08:23:38;15.02;;;7.75;;
65982;SDS011;52740;40.620;-8.640;2022-07-29T08:25:39;17.23;;;7.80;;
65982;SDS011;52740;40.620;-8.640;2022-07-29T08:27:40;14.73;;;7.50;;
65982;SDS011;52740;40.620;-8.640;2022-07-29T08:29:40;17.88;;;7.40;;
65982;SDS011;52740;40.620;-8.640;2022-07-29T08:31:42;15.55;;;7.93;;
65982;SDS011;52740;40.620;-8.640;2022-07-29T08:33:42;10.75;;;6.93;;
65982;SDS011;52740;40.620;-8.640;2022-07-29T08:35:43;10.40;;;7.00;;
65982;SDS011;52740;40.620;-8.640;2022-07-29T08:37:44;17.77;;;7.05;;
65982;SDS011;52740;40.620;-8.640;2022-07-29T08:39:47;16.25;;;7.55;;
65982;SDS011;52740;40.620;-8.640;2022-07-29T08:41:48;16.88;;;8.13;;
65982;SDS011;52740;40.620;-8.640;2022-07-29T08:43:49;10.43;;;6.20;;
65982;SDS011;52740;40.620;-8.640;2022-07-29T08:45:51;14.13;;;6.93;;
65982;SDS011;52740;40.620;-8.640;2022-07-29T08:47:52;10.48;;;6.90;;
65982;SDS011;52740;40.620;-8.640;2022-07-29T08:49:53;26.08;;;7.22;;
65982;SDS011;52740;40.620;-8.640;2022-07-29T08:51:54;15.27;;;6.47;;
65982;SDS011;52740;40.620;-8.640;2022-07-29T08:54:11;11.45;;;6.72;;
65982;SDS011;52740;40.620;-8.640;2022-07-29T08:56:44;8.77;;;5.85;;
65982;SDS011;52740;40.620;-8.640;2022-07-29T08:58:49;8.27;;;6.10;;
65982;SDS011;52740;40.620;-8.640;2022-07-29T09:00:51;9.43;;;6.60;;
65982;SDS011;52740;40.620;-8.640;2022-07-29T09:02:56;11.45;;;6.88;;
65982;SDS011;52740;40.620;-8.640;2022-07-29T09:05:08;16.77;;;7.65;;
65982;SDS011;52740;40.620;-8.640;2022-07-29T09:07:55;16.05;;;7.45;;
65982;SDS011;52740;40.620;-8.640;2022-07-29T09:09:57;9.23;;;6.88;;
65982;SDS011;52740;40.620;-8.640;2022-07-29T09:11:58;13.27;;;6.57;;
65982;SDS011;52740;40.620;-8.640;2022-07-29T09:14:00;17.20;;;7.18;;
65982;SDS011;52740;40.620;-8.640;2022-07-29T09:16:01;12.00;;;7.72;;
65982;SDS011;52740;40.620;-8.640;2022-07-29T09:18:02;10.50;;;7.40;;
65982;SDS011;52740;40.620;-8.640;2022-07-29T09:20:13;12.50;;;7.30;;
65982;SDS011;52740;40.620;-8.640;2022-07-29T09:22:27;11.25;;;6.43;;
65982;SDS011;52740;40.620;-8.640;2022-07-29T09:26:35;11.40;;;5.97;;
65982;SDS011;52740;40.620;-8.640;2022-07-29T09:28:41;10.35;;;6.32;;
65982;SDS011;52740;40.620;-8.640;2022-07-29T09:30:53;9.07;;;6.13;;
65982;SDS011;52740;40.620;-8.640;2022-07-29T09:32:56;11.13;;;6.78;;
65982;SDS011;52740;40.620;-8.640;2022-07-29T09:37:28;8.55;;;6.35;;
65982;SDS011;52740;40.620;-8.640;2022-07-29T09:39:33;11.85;;;6.38;;
65982;SDS011;52740;40.620;-8.640;2022-07-29T09:41:48;11.77;;;6.20;;
65982;SDS011;52740;40.620;-8.640;2022-07-29T09:43:56;9.48;;;6.70;;
65982;SDS011;52740;40.620;-8.640;2022-07-29T09:46:10;12.25;;;6.75;;
65982;SDS011;52740;40.620;-8.640;2022-07-29T09:50:17;10.10;;;5.55;;
65982;SDS011;52740;40.620;-8.640;2022-07-29T09:52:24;6.43;;;4.95;;
65982;SDS011;52740;40.620;-8.640;2022-07-29T09:54:29;7.47;;;4.32;;
65982;SDS011;52740;40.620;-8.640;2022-07-29T09:56:41;5.38;;;3.95;;
65982;SDS011;52740;40.620;-8.640;2022-07-29T09:58:42;4.57;;;3.60;;
65982;SDS011;52740;40.620;-8.640;2022-07-29T10:00:43;6.88;;;3.40;;
65982;SDS011;52740;40.620;-8.640;2022-07-29T10:02:46;7.95;;;3.70;;
65982;SDS011;52740;40.620;-8.640;2022-07-29T10:04:47;4.25;;;3.25;;
65982;SDS011;52740;40.620;-8.640;2022-07-29T10:06:55;4.43;;;3.00;;
65982;SDS011;52740;40.620;-8.640;2022-07-29T10:09:07;6.65;;;3.28;;
65982;SDS011;52740;40.620;-8.640;2022-07-29T10:11:13;5.78;;;3.03;;
65982;SDS011;52740;40.620;-8.640;2022-07-29T10:13:15;3.33;;;2.85;;
65982;SDS011;52740;40.620;-8.640;2022-07-29T10:15:16;3.53;;;2.97;;
65982;SDS011;52740;40.620;-8.640;2022-07-29T10:17:17;4.72;;;3.40;;
65982;SDS011;52740;40.620;-8.640;2022-07-29T10:19:19;5.43;;;3.22;;
65982;SDS011;52740;40.620;-8.640;2022-07-29T10:21:20;7.50;;;2.95;;
65982;SDS011;52740;40.620;-8.640;2022-07-29T10:23:21;4.18;;;3.22;;
65982;SDS011;52740;40.620;-8.640;2022-07-29T10:25:24;4.28;;;3.40;;
65982;SDS011;52740;40.620;-8.640;2022-07-29T10:27:26;4.38;;;3.25;;
65982;SDS011;52740;40.620;-8.640;2022-07-29T10:29:34;4.85;;;3.10;;
65982;SDS011;52740;40.620;-8.640;2022-07-29T10:31:39;3.28;;;2.97;;
65982;SDS011;52740;40.620;-8.640;2022-07-29T10:34:34;3.10;;;2.75;;
65982;SDS011;52740;40.620;-8.640;2022-07-29T10:36:54;2.97;;;2.78;;
65982;SDS011;52740;40.620;-8.640;2022-07-29T10:39:14;3.25;;;2.83;;
65982;SDS011;52740;40.620;-8.640;2022-07-29T10:43:37;3.67;;;3.38;;
65982;SDS011;52740;40.620;-8.640;2022-07-29T10:45:43;4.50;;;2.95;;
65982;SDS011;52740;40.620;-8.640;2022-07-29T10:47:47;5.65;;;3.00;;
65982;SDS011;52740;40.620;-8.640;2022-07-29T10:49:57;3.90;;;3.08;;
65982;SDS011;52740;40.620;-8.640;2022-07-29T10:52:03;4.22;;;2.75;;
65982;SDS011;52740;40.620;-8.640;2022-07-29T10:54:09;3.88;;;3.42;;
65982;SDS011;52740;40.620;-8.640;2022-07-29T10:56:26;3.67;;;3.05;;
65982;SDS011;52740;40.620;-8.640;2022-07-29T10:58:27;5.22;;;2.85;;
65982;SDS011;52740;40.620;-8.640;2022-07-29T11:00:29;6.93;;;3.33;;
65982;SDS011;52740;40.620;-8.640;2022-07-29T11:09:17;3.15;;;2.80;;
65982;SDS011;52740;40.620;-8.640;2022-07-29T11:15:55;3.45;;;3.15;;
65982;SDS011;52740;40.620;-8.640;2022-07-29T11:22:34;3.67;;;3.10;;
65982;SDS011;52740;40.620;-8.640;2022-07-29T11:24:36;3.47;;;3.28;;
65982;SDS011;52740;40.620;-8.640;2022-07-29T11:26:37;4.47;;;3.28;;
65982;SDS011;52740;40.620;-8.640;2022-07-29T11:30:53;2.92;;;2.53;;
65982;SDS011;52740;40.620;-8.640;2022-07-29T11:32:55;3.80;;;2.63;;
65982;SDS011;52740;40.620;-8.640;2022-07-29T11:35:15;4.28;;;3.63;;
65982;SDS011;52740;40.620;-8.640;2022-07-29T11:37:18;5.32;;;3.13;;
65982;SDS011;52740;40.620;-8.640;2022-07-29T11:39:29;5.38;;;3.15;;
65982;SDS011;52740;40.620;-8.640;2022-07-29T11:41:30;3.05;;;2.85;;
65982;SDS011;52740;40.620;-8.640;2022-07-29T11:43:48;4.13;;;3.28;;
65982;SDS011;52740;40.620;-8.640;2022-07-29T11:45:51;4.25;;;3.20;;
65982;SDS011;52740;40.620;-8.640;2022-07-29T11:47:53;3.55;;;3.25;;
65982;SDS011;52740;40.620;-8.640;2022-07-29T11:50:00;5.88;;;5.47;;
65982;SDS011;52740;40.620;-8.640;2022-07-29T11:52:02;2.90;;;2.70;;
65982;SDS011;52740;40.620;-8.640;2022-07-29T11:54:04;3.65;;;3.08;;
65982;SDS011;52740;40.620;-8.640;2022-07-29T11:56:07;3.35;;;3.05;;
65982;SDS011;52740;40.620;-8.640;2022-07-29T11:58:09;3.95;;;2.88;;
65982;SDS011;52740;40.620;-8.640;2022-07-29T12:00:10;3.88;;;3.25;;
65982;SDS011;52740;40.620;-8.640;2022-07-29T12:02:13;3.00;;;2.70;;
65982;SDS011;52740;40.620;-8.640;2022-07-29T12:04:14;5.57;;;2.67;;
65982;SDS011;52740;40.620;-8.640;2022-07-29T12:06:15;4.15;;;3.85;;
65982;SDS011;52740;40.620;-8.640;2022-07-29T12:08:20;3.78;;;3.22;;
65982;SDS011;52740;40.620;-8.640;2022-07-29T12:10:22;4.85;;;2.53;;
65982;SDS011;52740;40.620;-8.640;2022-07-29T12:12:30;3.20;;;2.90;;
65982;SDS011;52740;40.620;-8.640;2022-07-29T12:14:32;5.75;;;3.58;;
65982;SDS011;52740;40.620;-8.640;2022-07-29T12:16:36;5.47;;;3.30;;
65982;SDS011;52740;40.620;-8.640;2022-07-29T12:18:37;3.60;;;2.60;;
65982;SDS011;52740;40.620;-8.640;2022-07-29T12:20:38;3.60;;;3.28;;
65982;SDS011;52740;40.620;-8.640;2022-07-29T12:22:39;4.43;;;2.90;;
65982;SDS011;52740;40.620;-8.640;2022-07-29T12:24:46;3.67;;;2.05;;
65982;SDS011;52740;40.620;-8.640;2022-07-29T12:26:57;9.50;;;2.40;;
65982;SDS011;52740;40.620;-8.640;2022-07-29T12:28:58;4.20;;;3.22;;
65982;SDS011;52740;40.620;-8.640;2022-07-29T12:30:59;2.80;;;2.50;;
65982;SDS011;52740;40.620;-8.640;2022-07-29T12:33:01;5.85;;;2.15;;
65982;SDS011;52740;40.620;-8.640;2022-07-29T12:35:05;3.03;;;2.55;;
65982;SDS011;52740;40.620;-8.640;2022-07-29T12:37:11;3.58;;;2.30;;
65982;SDS011;52740;40.620;-8.640;2022-07-29T12:39:23;3.33;;;2.60;;
65982;SDS011;52740;40.620;-8.640;2022-07-29T12:42:23;4.13;;;2.20;;
65982;SDS011;52740;40.620;-8.640;2022-07-29T12:44:24;3.60;;;2.25;;
65982;SDS011;52740;40.620;-8.640;2022-07-29T12:46:26;5.97;;;4.32;;
65982;SDS011;52740;40.620;-8.640;2022-07-29T12:48:34;3.83;;;3.50;;